| time (UTC) | temp F | wind direction | speed knots | gust knots | rain 1hr in | rain 24hr in | rain mn in | humidity % | barometer mb |
| 20260505200402 | 49 | 46 | 0.9 | 5.2 | 0.00 | 0.00 | 0.00 | 75 | 1016.3 |
| 20260505195903 | 49 | 47 | 0.9 | 5.2 | 0.00 | 0.00 | 0.00 | 75 | 1016.3 |
| 20260505195402 | 49 | 47 | 0.9 | 5.2 | 0.00 | 0.00 | 0.00 | 75 | 1016.3 |
| 20260505194902 | 49 | 46 | 0.9 | 5.2 | 0.00 | 0.00 | 0.00 | 75 | 1016.3 |
| 20260505194402 | 49 | 46 | 0.9 | 5.2 | 0.00 | 0.00 | 0.00 | 75 | 1016.3 |
| 20260505193902 | 49 | 54 | 0.9 | 5.2 | 0.00 | 0.00 | 0.00 | 75 | 1016.3 |
| 20260505193402 | 49 | 29 | 0.9 | 5.2 | 0.00 | 0.00 | 0.00 | 75 | 1016.3 |
| 20260505192903 | 49 | 83 | 0.9 | 5.2 | 0.00 | 0.00 | 0.00 | 75 | 1016.3 |
| 20260505192403 | 49 | 2 | 0.9 | 5.2 | 0.00 | 0.00 | 0.00 | 75 | 1016.3 |
| 20260505191902 | 55 | 113 | 1.7 | 5.2 | 0.00 | 0.00 | 0.00 | 66 | 1015.9 |
| 20260505190903 | 55 | 113 | 1.7 | 5.2 | 0.00 | 0.00 | 0.00 | 66 | 1015.9 |
| 20260505190403 | 55 | 113 | 1.7 | 5.2 | 0.00 | 0.00 | 0.00 | 66 | 1015.9 |
| 20260505185903 | 55 | 113 | 1.7 | 5.2 | 0.00 | 0.00 | 0.00 | 66 | 1015.9 |
| 20260505185403 | 55 | 113 | 1.7 | 5.2 | 0.00 | 0.00 | 0.00 | 66 | 1015.9 |
| 20260505184903 | 55 | 113 | 1.7 | 5.2 | 0.00 | 0.00 | 0.00 | 66 | 1015.9 |
| 20260505183903 | 55 | 113 | 1.7 | 5.2 | 0.00 | 0.00 | 0.00 | 66 | 1015.9 |
| 20260505183403 | 55 | 113 | 1.7 | 5.2 | 0.00 | 0.00 | 0.00 | 66 | 1015.9 |
| 20260505182903 | 55 | 113 | 1.7 | 5.2 | 0.00 | 0.00 | 0.00 | 66 | 1015.9 |
| 20260505182403 | 55 | 113 | 1.7 | 5.2 | 0.00 | 0.00 | 0.00 | 66 | 1015.9 |
| 20260505181903 | 55 | 113 | 1.7 | 5.2 | 0.00 | 0.00 | 0.00 | 66 | 1015.9 |
| 20260505181402 | 55 | 113 | 1.7 | 5.2 | 0.00 | 0.00 | 0.00 | 66 | 1015.9 |
| 20260505180903 | 55 | 113 | 1.7 | 5.2 | 0.00 | 0.00 | 0.00 | 66 | 1015.9 |
| 20260505180403 | 55 | 113 | 1.7 | 5.2 | 0.00 | 0.00 | 0.00 | 66 | 1015.9 |
| 20260505175903 | 55 | 113 | 1.7 | 5.2 | 0.00 | 0.00 | 0.00 | 66 | 1015.9 |
| 20260505175403 | 55 | 113 | 1.7 | 5.2 | 0.00 | 0.00 | 0.00 | 66 | 1015.9 |
| 20260505174903 | 55 | 113 | 1.7 | 5.2 | 0.00 | 0.00 | 0.00 | 66 | 1015.9 |
| 20260505174403 | 55 | 113 | 1.7 | 5.2 | 0.00 | 0.00 | 0.00 | 66 | 1015.9 |
| 20260505173903 | 55 | 113 | 1.7 | 5.2 | 0.00 | 0.00 | 0.00 | 66 | 1015.9 |
| 20260505173403 | 55 | 112 | 1.7 | 5.2 | 0.00 | 0.00 | 0.00 | 66 | 1015.9 |
| 20260505172903 | 55 | 114 | 1.7 | 5.2 | 0.00 | 0.00 | 0.00 | 66 | 1015.9 |
| 20260505172403 | 55 | 110 | 1.7 | 5.2 | 0.00 | 0.00 | 0.00 | 66 | 1015.9 |
| 20260505171903 | 55 | 119 | 1.7 | 5.2 | 0.00 | 0.00 | 0.00 | 66 | 1015.9 |
| 20260505171402 | 55 | 101 | 1.7 | 5.2 | 0.00 | 0.00 | 0.00 | 66 | 1015.9 |
| 20260505170903 | 55 | 135 | 1.7 | 5.2 | 0.00 | 0.00 | 0.00 | 66 | 1015.9 |
| 20260505170403 | 54 | 64 | 1.7 | 5.2 | 0.00 | 0.00 | 0.00 | 66 | 1016.3 |
| 20260505165903 | 54 | 64 | 1.7 | 5.2 | 0.00 | 0.00 | 0.00 | 66 | 1016.3 |
| 20260505165403 | 54 | 64 | 1.7 | 5.2 | 0.00 | 0.00 | 0.00 | 66 | 1016.3 |
| 20260505164903 | 54 | 64 | 1.7 | 5.2 | 0.00 | 0.00 | 0.00 | 66 | 1016.3 |
| 20260505164403 | 54 | 64 | 1.7 | 5.2 | 0.00 | 0.00 | 0.00 | 66 | 1016.3 |
| 20260505163903 | 54 | 64 | 1.7 | 5.2 | 0.00 | 0.00 | 0.00 | 66 | 1016.3 |
| 20260505163403 | 54 | 64 | 1.7 | 5.2 | 0.00 | 0.00 | 0.00 | 66 | 1016.3 |
| 20260505162903 | 54 | 64 | 1.7 | 5.2 | 0.00 | 0.00 | 0.00 | 66 | 1016.3 |
| 20260505162403 | 54 | 64 | 1.7 | 5.2 | 0.00 | 0.00 | 0.00 | 66 | 1016.3 |
| 20260505161403 | 54 | 64 | 1.7 | 5.2 | 0.00 | 0.00 | 0.00 | 66 | 1016.3 |
| 20260505160903 | 54 | 65 | 1.7 | 5.2 | 0.00 | 0.00 | 0.00 | 66 | 1016.3 |
| 20260505160404 | 54 | 62 | 1.7 | 5.2 | 0.00 | 0.00 | 0.00 | 66 | 1016.3 |
| 20260505152403 | 53 | 28 | 1.7 | 7.8 | 0.00 | 0.00 | 0.00 | 72 | 1016.3 |
| 20260505151903 | 53 | 28 | 1.7 | 7.8 | 0.00 | 0.00 | 0.00 | 72 | 1016.3 |
| 20260505150903 | 53 | 28 | 1.7 | 7.8 | 0.00 | 0.00 | 0.00 | 72 | 1016.3 |
| 20260505140404 | 51 | 20 | 1.7 | 7.8 | 0.00 | 0.00 | 0.00 | 76 | 1016.6 |
| 20260505124903 | 52 | 357 | 2.6 | 7.8 | 0.00 | 0.00 | 0.00 | 75 | 1016.6 |
| 20260505124404 | 52 | 357 | 2.6 | 7.8 | 0.00 | 0.00 | 0.00 | 75 | 1016.6 |
| 20260505123903 | 52 | 357 | 2.6 | 7.8 | 0.00 | 0.00 | 0.00 | 75 | 1016.6 |
| 20260505122404 | 52 | 358 | 2.6 | 7.8 | 0.00 | 0.00 | 0.00 | 75 | 1016.6 |
| 20260505121404 | 52 | 1 | 2.6 | 7.8 | 0.00 | 0.00 | 0.00 | 75 | 1016.6 |
| 20260505120903 | 52 | 349 | 2.6 | 7.8 | 0.00 | 0.00 | 0.00 | 75 | 1016.6 |
| 20260505115903 | 48 | 326 | 2.6 | 6.1 | 0.00 | 0.00 | 0.00 | 85 | 1016.6 |
| 20260505115404 | 48 | 326 | 2.6 | 6.1 | 0.00 | 0.00 | 0.00 | 85 | 1016.6 |
| 20260505114904 | 48 | 326 | 2.6 | 6.1 | 0.00 | 0.00 | 0.00 | 85 | 1016.6 |
| 20260505114404 | 48 | 326 | 2.6 | 6.1 | 0.00 | 0.00 | 0.00 | 85 | 1016.6 |
| 20260505113901 | 48 | 326 | 2.6 | 6.1 | 0.00 | 0.00 | 0.00 | 85 | 1016.6 |
| 20260505113401 | 48 | 326 | 2.6 | 6.1 | 0.00 | 0.00 | 0.00 | 85 | 1016.6 |
| 20260505112900 | 48 | 326 | 2.6 | 6.1 | 0.00 | 0.00 | 0.00 | 85 | 1016.6 |
| 20260505112401 | 48 | 326 | 2.6 | 6.1 | 0.00 | 0.00 | 0.00 | 85 | 1016.6 |
| 20260505111900 | 48 | 326 | 2.6 | 6.1 | 0.00 | 0.00 | 0.00 | 85 | 1016.6 |
| 20260505111401 | 48 | 326 | 2.6 | 6.1 | 0.00 | 0.00 | 0.00 | 85 | 1016.6 |
| 20260505110901 | 48 | 326 | 2.6 | 6.1 | 0.00 | 0.00 | 0.00 | 85 | 1016.6 |
| 20260505110400 | 48 | 326 | 2.6 | 6.1 | 0.00 | 0.00 | 0.00 | 85 | 1016.6 |
| 20260505095901 | 48 | 326 | 2.6 | 6.1 | 0.00 | 0.00 | 0.00 | 85 | 1016.6 |
| 20260505094901 | 48 | 326 | 2.6 | 6.1 | 0.00 | 0.00 | 0.00 | 85 | 1016.6 |
| 20260505094400 | 48 | 326 | 2.6 | 6.1 | 0.00 | 0.00 | 0.00 | 85 | 1016.6 |
| 20260505093901 | 48 | 326 | 2.6 | 6.1 | 0.00 | 0.00 | 0.00 | 85 | 1016.6 |
| 20260505093400 | 48 | 326 | 2.6 | 6.1 | 0.00 | 0.00 | 0.00 | 85 | 1016.6 |
| 20260505092901 | 48 | 326 | 2.6 | 6.1 | 0.00 | 0.00 | 0.00 | 85 | 1016.6 |
| 20260505092401 | 48 | 326 | 2.6 | 6.1 | 0.00 | 0.00 | 0.00 | 85 | 1016.6 |
| 20260505091901 | 48 | 326 | 2.6 | 6.1 | 0.00 | 0.00 | 0.00 | 85 | 1016.6 |
| 20260505091401 | 48 | 326 | 2.6 | 6.1 | 0.00 | 0.00 | 0.00 | 85 | 1016.6 |
| 20260505090901 | 48 | 326 | 2.6 | 6.1 | 0.00 | 0.00 | 0.00 | 85 | 1016.6 |
| 20260505090401 | 48 | 326 | 2.6 | 6.1 | 0.00 | 0.00 | 0.00 | 85 | 1016.6 |
| 20260505085901 | 48 | 326 | 2.6 | 6.1 | 0.00 | 0.00 | 0.00 | 85 | 1016.6 |
| 20260505085401 | 48 | 326 | 2.6 | 6.1 | 0.00 | 0.00 | 0.00 | 85 | 1016.6 |
| 20260505084401 | 48 | 326 | 2.6 | 6.1 | 0.00 | 0.00 | 0.00 | 85 | 1016.6 |
| 20260505083901 | 48 | 326 | 2.6 | 6.1 | 0.00 | 0.00 | 0.00 | 85 | 1016.6 |
| 20260505083401 | 48 | 326 | 2.6 | 6.1 | 0.00 | 0.00 | 0.00 | 85 | 1016.6 |
| 20260505082901 | 48 | 326 | 2.6 | 6.1 | 0.00 | 0.00 | 0.00 | 85 | 1016.6 |
| 20260505082401 | 48 | 326 | 2.6 | 6.1 | 0.00 | 0.00 | 0.00 | 85 | 1016.6 |
| 20260505081401 | 48 | 326 | 2.6 | 6.1 | 0.00 | 0.00 | 0.00 | 85 | 1016.6 |
| 20260505080901 | 48 | 326 | 2.6 | 6.1 | 0.00 | 0.00 | 0.00 | 85 | 1016.6 |
| 20260505080401 | 48 | 326 | 2.6 | 6.1 | 0.00 | 0.00 | 0.00 | 85 | 1016.6 |
| 20260505075901 | 48 | 326 | 2.6 | 6.1 | 0.00 | 0.00 | 0.00 | 85 | 1016.6 |
| 20260505074401 | 48 | 326 | 2.6 | 6.1 | 0.00 | 0.00 | 0.00 | 85 | 1016.6 |
| 20260505073901 | 48 | 326 | 2.6 | 6.1 | 0.00 | 0.00 | 0.00 | 85 | 1016.6 |
| 20260505071901 | 48 | 326 | 2.6 | 6.1 | 0.00 | 0.00 | 0.00 | 85 | 1016.6 |
| 20260505071401 | 48 | 326 | 2.6 | 6.1 | 0.00 | 0.00 | 0.00 | 85 | 1016.6 |
| 20260505070901 | 48 | 326 | 2.6 | 6.1 | 0.00 | 0.00 | 0.00 | 85 | 1016.6 |
| 20260505070402 | 48 | 327 | 2.6 | 6.1 | 0.00 | 0.00 | 0.00 | 85 | 1016.6 |
| 20260505065401 | 48 | 329 | 2.6 | 6.1 | 0.00 | 0.00 | 0.00 | 85 | 1016.6 |
| 20260505064402 | 47 | 320 | 1.7 | 6.1 | 0.00 | 0.00 | 0.00 | 87 | 1016.6 |
| 20260505063402 | 47 | 320 | 1.7 | 6.1 | 0.00 | 0.00 | 0.00 | 87 | 1016.6 |
| 20260505062901 | 47 | 319 | 1.7 | 6.1 | 0.00 | 0.00 | 0.00 | 87 | 1016.6 |
| 20260505062402 | 47 | 319 | 1.7 | 6.1 | 0.00 | 0.00 | 0.00 | 87 | 1016.6 |
| 20260505061901 | 47 | 320 | 1.7 | 6.1 | 0.00 | 0.00 | 0.00 | 87 | 1016.6 |
| 20260505061402 | 47 | 319 | 1.7 | 6.1 | 0.00 | 0.00 | 0.00 | 87 | 1016.6 |
| 20260505060901 | 47 | 320 | 1.7 | 6.1 | 0.00 | 0.00 | 0.00 | 87 | 1016.6 |
| 20260505060401 | 47 | 319 | 1.7 | 6.1 | 0.00 | 0.00 | 0.00 | 87 | 1016.6 |
| 20260505055901 | 47 | 320 | 1.7 | 6.1 | 0.00 | 0.00 | 0.00 | 87 | 1016.6 |
| 20260505055401 | 47 | 319 | 1.7 | 6.1 | 0.00 | 0.00 | 0.00 | 87 | 1016.6 |
| 20260505054901 | 47 | 320 | 1.7 | 6.1 | 0.00 | 0.00 | 0.00 | 87 | 1016.6 |
| 20260505054401 | 47 | 319 | 1.7 | 6.1 | 0.00 | 0.00 | 0.00 | 87 | 1016.6 |
| 20260505053902 | 47 | 320 | 1.7 | 6.1 | 0.00 | 0.00 | 0.00 | 87 | 1016.6 |
| 20260505053402 | 47 | 319 | 1.7 | 6.1 | 0.00 | 0.00 | 0.00 | 87 | 1016.6 |
| 20260505052901 | 47 | 320 | 2.6 | 6.1 | 0.00 | 0.00 | 0.00 | 88 | 1016.3 |
| 20260505052401 | 47 | 321 | 2.6 | 6.1 | 0.00 | 0.00 | 0.00 | 88 | 1016.3 |
| 20260505051901 | 47 | 320 | 2.6 | 6.1 | 0.00 | 0.00 | 0.00 | 88 | 1016.3 |
| 20260505051401 | 47 | 321 | 2.6 | 6.1 | 0.00 | 0.00 | 0.00 | 88 | 1016.3 |
| 20260505050901 | 47 | 320 | 2.6 | 6.1 | 0.00 | 0.00 | 0.00 | 88 | 1016.3 |
| 20260505050401 | 47 | 320 | 2.6 | 6.1 | 0.00 | 0.00 | 0.00 | 88 | 1016.3 |
| 20260505041402 | 46 | 320 | 4.3 | 6.1 | 0.00 | 0.00 | 0.00 | 91 | 1016.6 |
| 20260505040901 | 46 | 320 | 4.3 | 6.1 | 0.00 | 0.00 | 0.00 | 91 | 1016.6 |
| 20260505035902 | 46 | 320 | 4.3 | 6.1 | 0.00 | 0.00 | 0.00 | 91 | 1016.6 |
| 20260505035402 | 46 | 320 | 4.3 | 6.1 | 0.00 | 0.00 | 0.00 | 91 | 1016.6 |
| 20260505034902 | 46 | 320 | 4.3 | 6.1 | 0.00 | 0.00 | 0.00 | 91 | 1016.6 |
| 20260505034402 | 46 | 320 | 4.3 | 6.1 | 0.00 | 0.00 | 0.00 | 91 | 1016.6 |
| 20260505033402 | 46 | 320 | 4.3 | 6.1 | 0.00 | 0.00 | 0.00 | 91 | 1016.6 |
| 20260505032901 | 46 | 320 | 4.3 | 6.1 | 0.00 | 0.00 | 0.00 | 91 | 1016.6 |
| 20260505032401 | 46 | 320 | 4.3 | 6.1 | 0.00 | 0.00 | 0.00 | 91 | 1016.6 |
| 20260505031902 | 46 | 320 | 4.3 | 6.1 | 0.00 | 0.00 | 0.00 | 91 | 1016.6 |
| 20260505031401 | 46 | 319 | 4.3 | 6.1 | 0.00 | 0.00 | 0.00 | 91 | 1016.6 |
| 20260505030901 | 46 | 322 | 4.3 | 6.1 | 0.00 | 0.00 | 0.00 | 91 | 1016.6 |
| 20260505030401 | 46 | 316 | 4.3 | 6.1 | 0.00 | 0.00 | 0.00 | 91 | 1016.6 |
| 20260505025901 | 46 | 344 | 0.9 | 1.7 | 0.00 | 0.00 | 0.00 | 91 | 1016.9 |
| 20260505025402 | 46 | 344 | 0.9 | 1.7 | 0.00 | 0.00 | 0.00 | 91 | 1016.9 |
| 20260505024901 | 46 | 344 | 0.9 | 1.7 | 0.00 | 0.00 | 0.00 | 91 | 1016.9 |
| 20260505024402 | 46 | 344 | 0.9 | 1.7 | 0.00 | 0.00 | 0.00 | 91 | 1016.9 |
| 20260505023902 | 46 | 344 | 0.9 | 1.7 | 0.00 | 0.00 | 0.00 | 91 | 1016.9 |
| 20260505023402 | 46 | 344 | 0.9 | 1.7 | 0.00 | 0.00 | 0.00 | 91 | 1016.9 |
| 20260505022902 | 46 | 344 | 0.9 | 1.7 | 0.00 | 0.00 | 0.00 | 91 | 1016.9 |
| 20260505022402 | 46 | 344 | 0.9 | 1.7 | 0.00 | 0.00 | 0.00 | 91 | 1016.9 |
| 20260505021902 | 46 | 344 | 0.9 | 1.7 | 0.00 | 0.00 | 0.00 | 91 | 1016.9 |
| 20260505021402 | 46 | 344 | 0.9 | 1.7 | 0.00 | 0.00 | 0.00 | 91 | 1016.9 |
| 20260505020902 | 46 | 344 | 0.9 | 1.7 | 0.00 | 0.00 | 0.00 | 91 | 1016.9 |
| 20260505020401 | 46 | 344 | 0.9 | 1.7 | 0.00 | 0.00 | 0.00 | 91 | 1016.9 |
| 20260505015902 | 46 | 344 | 0.9 | 1.7 | 0.00 | 0.00 | 0.00 | 91 | 1016.9 |
| 20260505015402 | 46 | 344 | 0.9 | 1.7 | 0.00 | 0.00 | 0.00 | 91 | 1016.9 |
| 20260505014901 | 46 | 344 | 0.9 | 1.7 | 0.00 | 0.00 | 0.00 | 91 | 1016.9 |
| 20260505014402 | 46 | 344 | 0.9 | 1.7 | 0.00 | 0.00 | 0.00 | 91 | 1016.9 |
| 20260505013902 | 46 | 344 | 0.9 | 1.7 | 0.00 | 0.00 | 0.00 | 91 | 1016.9 |
| 20260505013402 | 46 | 344 | 0.9 | 1.7 | 0.00 | 0.00 | 0.00 | 91 | 1016.9 |
| 20260505012402 | 46 | 344 | 0.9 | 1.7 | 0.00 | 0.00 | 0.00 | 91 | 1016.9 |
| 20260505011902 | 46 | 344 | 0.9 | 1.7 | 0.00 | 0.00 | 0.00 | 91 | 1016.9 |
| 20260505011402 | 46 | 344 | 0.9 | 1.7 | 0.00 | 0.00 | 0.00 | 91 | 1016.9 |
| 20260505010902 | 46 | 344 | 0.9 | 1.7 | 0.00 | 0.00 | 0.00 | 91 | 1016.9 |
| 20260505010402 | 46 | 344 | 0.9 | 1.7 | 0.00 | 0.00 | 0.00 | 91 | 1016.9 |
| 20260505005902 | 46 | 344 | 0.9 | 1.7 | 0.00 | 0.00 | 0.00 | 91 | 1016.9 |
| 20260505004902 | 46 | 344 | 0.9 | 1.7 | 0.00 | 0.00 | 0.00 | 91 | 1016.9 |
| 20260505004402 | 46 | 345 | 0.9 | 1.7 | 0.00 | 0.00 | 0.00 | 91 | 1016.9 |
| 20260505003902 | 46 | 343 | 0.9 | 1.7 | 0.00 | 0.00 | 0.00 | 91 | 1016.9 |
| 20260505003402 | 46 | 347 | 0.9 | 1.7 | 0.00 | 0.00 | 0.00 | 91 | 1016.9 |
| 20260505002902 | 46 | 340 | 0.9 | 1.7 | 0.00 | 0.00 | 0.00 | 91 | 1016.9 |
| 20260505002402 | 46 | 355 | 0.9 | 1.7 | 0.00 | 0.00 | 0.00 | 90 | 1017.3 |
| 20260505001902 | 46 | 355 | 0.9 | 1.7 | 0.00 | 0.00 | 0.00 | 90 | 1017.3 |
| 20260505001402 | 46 | 355 | 0.9 | 1.7 | 0.00 | 0.00 | 0.00 | 90 | 1017.3 |
| 20260505000902 | 46 | 355 | 0.9 | 1.7 | 0.00 | 0.00 | 0.00 | 90 | 1017.3 |
| 20260505000402 | 46 | 355 | 0.9 | 1.7 | 0.00 | 0.00 | 0.00 | 90 | 1017.3 |
| 20260504235902 | 46 | 355 | 0.9 | 1.7 | 0.00 | 0.00 | 0.00 | 90 | 1017.3 |
| 20260504235402 | 46 | 355 | 0.9 | 1.7 | 0.00 | 0.00 | 0.00 | 90 | 1017.3 |
| 20260504234902 | 46 | 355 | 0.9 | 1.7 | 0.00 | 0.00 | 0.00 | 90 | 1017.3 |
| 20260504234403 | 46 | 355 | 0.9 | 1.7 | 0.00 | 0.00 | 0.00 | 90 | 1017.3 |
| 20260504233902 | 46 | 355 | 0.9 | 1.7 | 0.00 | 0.00 | 0.00 | 90 | 1017.3 |
| 20260504233402 | 46 | 355 | 0.9 | 1.7 | 0.00 | 0.00 | 0.00 | 90 | 1017.3 |
| 20260504232902 | 46 | 355 | 0.9 | 1.7 | 0.00 | 0.00 | 0.00 | 90 | 1017.3 |
| 20260504231903 | 46 | 357 | 0.9 | 1.7 | 0.00 | 0.00 | 0.00 | 90 | 1017.3 |
| 20260504231403 | 46 | 351 | 0.9 | 1.7 | 0.00 | 0.00 | 0.00 | 90 | 1017.3 |
| 20260504230902 | 46 | 2 | 0.9 | 1.7 | 0.00 | 0.00 | 0.00 | 88 | 1017.3 |
| 20260504230403 | 46 | 2 | 0.9 | 1.7 | 0.00 | 0.00 | 0.00 | 88 | 1017.3 |
| 20260504225403 | 46 | 2 | 0.9 | 1.7 | 0.00 | 0.00 | 0.00 | 88 | 1017.3 |
| 20260504223902 | 46 | 2 | 0.9 | 1.7 | 0.00 | 0.00 | 0.00 | 88 | 1017.3 |
| 20260504223402 | 46 | 2 | 0.9 | 1.7 | 0.00 | 0.00 | 0.00 | 88 | 1017.3 |
| 20260504222903 | 46 | 2 | 0.9 | 1.7 | 0.00 | 0.00 | 0.00 | 88 | 1017.3 |
| 20260504222402 | 46 | 2 | 0.9 | 1.7 | 0.00 | 0.00 | 0.00 | 88 | 1017.3 |
| 20260504221402 | 46 | 3 | 0.9 | 1.7 | 0.00 | 0.00 | 0.00 | 88 | 1017.3 |
| 20260504220902 | 46 | 0 | 0.9 | 1.7 | 0.00 | 0.00 | 0.00 | 88 | 1017.3 |
| 20260504220402 | 46 | 6 | 0.9 | 1.7 | 0.00 | 0.00 | 0.00 | 88 | 1017.3 |
| 20260504215902 | 46 | 354 | 0.9 | 1.7 | 0.00 | 0.00 | 0.00 | 88 | 1017.3 |
| 20260504215402 | 48 | 21 | 0.9 | 1.7 | 0.00 | 0.00 | 0.00 | 86 | 1017.6 |
| 20260504214903 | 48 | 21 | 0.9 | 1.7 | 0.00 | 0.00 | 0.00 | 86 | 1017.6 |
| 20260504214402 | 48 | 21 | 0.9 | 1.7 | 0.00 | 0.00 | 0.00 | 86 | 1017.6 |
| 20260504213902 | 48 | 21 | 0.9 | 1.7 | 0.00 | 0.00 | 0.00 | 86 | 1017.6 |
| 20260504213402 | 48 | 21 | 0.9 | 1.7 | 0.00 | 0.00 | 0.00 | 86 | 1017.6 |
| 20260504212902 | 48 | 21 | 0.9 | 1.7 | 0.00 | 0.00 | 0.00 | 86 | 1017.6 |
| 20260504212402 | 48 | 21 | 0.9 | 1.7 | 0.00 | 0.00 | 0.00 | 86 | 1017.6 |
| 20260504211903 | 48 | 21 | 0.9 | 1.7 | 0.00 | 0.00 | 0.00 | 86 | 1017.6 |
| 20260504211402 | 48 | 21 | 0.9 | 1.7 | 0.00 | 0.00 | 0.00 | 86 | 1017.6 |
| 20260504210904 | 48 | 20 | 0.9 | 1.7 | 0.00 | 0.00 | 0.00 | 86 | 1017.6 |
| 20260504210402 | 48 | 24 | 0.9 | 1.7 | 0.00 | 0.00 | 0.00 | 86 | 1017.6 |
| 20260504205903 | 48 | 14 | 0.9 | 1.7 | 0.00 | 0.00 | 0.00 | 86 | 1017.6 |
| 20260504205402 | 48 | 35 | 0.9 | 1.7 | 0.00 | 0.00 | 0.00 | 86 | 1017.6 |
| 20260504204903 | 48 | 357 | 0.9 | 1.7 | 0.00 | 0.00 | 0.00 | 86 | 1017.6 |
| 20260504204402 | 51 | 71 | 0.9 | 1.7 | 0.00 | 0.00 | 0.00 | 81 | 1016.9 |
| 20260504203904 | 51 | 71 | 0.9 | 1.7 | 0.00 | 0.00 | 0.00 | 81 | 1016.9 |
| 20260504203403 | 51 | 71 | 0.9 | 1.7 | 0.00 | 0.00 | 0.00 | 81 | 1016.9 |
| 20260504202903 | 51 | 71 | 0.9 | 1.7 | 0.00 | 0.00 | 0.00 | 81 | 1016.9 |
| 20260504202402 | 51 | 71 | 0.9 | 1.7 | 0.00 | 0.00 | 0.00 | 81 | 1016.9 |
| 20260504201403 | 51 | 71 | 0.9 | 1.7 | 0.00 | 0.00 | 0.00 | 81 | 1016.9 |
| 20260504200903 | 51 | 71 | 0.9 | 1.7 | 0.00 | 0.00 | 0.00 | 81 | 1016.9 |